createdAt,value
2023-02-12T00:01:34.579Z,16.60
2023-02-12T00:04:07.513Z,17.02
2023-02-12T00:06:40.585Z,17.48
2023-02-12T00:09:13.378Z,17.65
2023-02-12T00:11:46.243Z,17.08
2023-02-12T00:14:19.197Z,17.10
2023-02-12T00:16:53.337Z,17.35
2023-02-12T00:19:26.168Z,15.70
2023-02-12T00:21:58.997Z,16.45
2023-02-12T00:24:32.053Z,16.00
2023-02-12T00:27:04.934Z,16.35
2023-02-12T00:29:38.438Z,16.63
2023-02-12T00:32:14.210Z,18.08
2023-02-12T00:34:47.331Z,14.55
2023-02-12T00:37:22.118Z,15.15
2023-02-12T00:39:54.923Z,15.75
2023-02-12T00:42:27.816Z,16.08
2023-02-12T00:45:01.986Z,18.00
2023-02-12T00:47:38.473Z,16.05
2023-02-12T00:50:12.308Z,17.02
2023-02-12T00:52:46.960Z,16.73
2023-02-12T00:55:20.116Z,18.15
2023-02-12T00:57:52.903Z,19.00
2023-02-12T01:00:26.325Z,20.08
2023-02-12T01:03:00.796Z,18.83
2023-02-12T01:05:34.031Z,18.77
2023-02-12T01:08:06.863Z,18.35
2023-02-12T01:10:39.686Z,18.60
2023-02-12T01:13:14.900Z,20.05
2023-02-12T01:15:47.825Z,19.17
2023-02-12T01:18:22.575Z,18.58
2023-02-12T01:20:55.435Z,18.38
2023-02-12T01:23:29.752Z,18.45
2023-02-12T01:26:02.632Z,18.08
2023-02-12T01:28:35.504Z,17.73
2023-02-12T01:31:13.023Z,17.83
2023-02-12T01:33:48.986Z,17.35
2023-02-12T01:36:22.693Z,17.30
2023-02-12T01:38:56.623Z,18.92
2023-02-12T01:41:31.141Z,17.92
2023-02-12T01:44:15.497Z,17.10
2023-02-12T01:46:49.992Z,17.13
2023-02-12T01:49:28.113Z,18.63
2023-02-12T01:52:06.156Z,18.08
2023-02-12T01:54:39.388Z,18.73
2023-02-12T01:57:13.935Z,17.80
2023-02-12T01:59:51.722Z,18.10
2023-02-12T02:02:26.365Z,16.75
2023-02-12T02:05:03.884Z,18.08
2023-02-12T02:07:36.876Z,16.80
2023-02-12T02:10:11.034Z,17.58
2023-02-12T02:13:01.344Z,16.38
2023-02-12T02:15:34.406Z,15.35
2023-02-12T02:18:17.020Z,16.15
2023-02-12T02:21:28.345Z,15.80
2023-02-12T02:24:34.143Z,14.85
2023-02-12T02:27:20.621Z,16.52
2023-02-12T02:30:23.615Z,17.83
2023-02-12T02:33:08.005Z,15.45
2023-02-12T02:35:45.436Z,15.55
2023-02-12T02:38:26.752Z,16.23
2023-02-12T02:41:05.887Z,16.38
2023-02-12T02:43:45.176Z,15.68
2023-02-12T02:46:25.714Z,16.88
2023-02-12T02:49:03.157Z,15.98
2023-02-12T02:51:44.227Z,17.45
2023-02-12T02:54:20.445Z,16.65
2023-02-12T02:56:58.359Z,15.50
2023-02-12T02:59:36.630Z,16.23
2023-02-12T03:02:17.029Z,16.60
2023-02-12T03:07:30.632Z,14.70
2023-02-12T03:10:08.477Z,16.38
2023-02-12T03:12:47.729Z,16.98
2023-02-12T03:15:25.349Z,17.15
2023-02-12T03:18:01.366Z,17.48
2023-02-12T03:20:40.853Z,15.27
2023-02-12T03:23:17.523Z,16.37
2023-02-12T03:25:57.042Z,17.90
2023-02-12T03:28:32.613Z,17.35
2023-02-12T03:31:11.690Z,17.33
2023-02-12T03:33:55.572Z,18.13
2023-02-12T03:36:36.609Z,16.13
2023-02-12T03:39:14.643Z,16.58
2023-02-12T03:41:55.224Z,17.05
2023-02-12T03:44:40.842Z,17.58
2023-02-12T03:47:20.165Z,16.70
2023-02-12T03:50:02.062Z,16.58
2023-02-12T03:52:35.587Z,17.58
2023-02-12T03:55:09.307Z,18.02
2023-02-12T03:57:45.476Z,18.38
2023-02-12T04:00:21.852Z,18.13
2023-02-12T04:02:56.037Z,17.20
2023-02-12T04:05:30.168Z,17.90
2023-02-12T04:08:12.739Z,17.00
2023-02-12T04:10:58.821Z,15.45
2023-02-12T04:13:40.788Z,17.17
2023-02-12T04:16:22.441Z,17.55
2023-02-12T04:18:56.311Z,16.15
2023-02-12T04:21:44.556Z,15.82
2023-02-12T04:24:25.339Z,16.88
2023-02-12T04:27:03.296Z,17.48
2023-02-12T04:29:46.339Z,18.65
2023-02-12T04:32:25.518Z,18.25
2023-02-12T04:35:03.077Z,18.05
2023-02-12T04:37:42.377Z,17.23
2023-02-12T04:40:17.650Z,16.67
2023-02-12T04:42:52.296Z,18.50
2023-02-12T04:45:28.193Z,19.02
2023-02-12T04:48:01.249Z,18.67
2023-02-12T04:50:40.341Z,17.15
2023-02-12T04:53:14.763Z,17.23
2023-02-12T04:55:49.465Z,16.40
2023-02-12T04:58:22.450Z,16.17
2023-02-12T05:00:55.396Z,17.17
2023-02-12T05:03:28.706Z,16.30
2023-02-12T05:06:04.774Z,16.48
2023-02-12T05:08:39.187Z,16.65
2023-02-12T05:11:13.378Z,16.95
2023-02-12T05:13:49.877Z,17.52
2023-02-12T05:16:23.205Z,16.85
2023-02-12T05:18:56.067Z,15.93
2023-02-12T05:21:29.266Z,16.63
2023-02-12T05:24:04.149Z,16.23
2023-02-12T05:26:38.960Z,18.13
2023-02-12T05:29:11.968Z,17.58
2023-02-12T05:31:45.980Z,16.67
2023-02-12T05:34:19.034Z,18.25
2023-02-12T05:36:51.956Z,18.80
2023-02-12T05:39:26.448Z,18.20
2023-02-12T05:41:59.361Z,18.55
2023-02-12T05:44:32.234Z,18.98
2023-02-12T05:47:05.085Z,19.00
2023-02-12T05:49:38.336Z,20.30
2023-02-12T05:52:11.100Z,18.85
2023-02-12T05:54:45.586Z,19.70
2023-02-12T05:57:18.641Z,18.88
2023-02-12T05:59:51.746Z,18.08
2023-02-12T06:02:24.630Z,17.58
2023-02-12T06:04:57.695Z,19.50
2023-02-12T06:07:30.848Z,20.30
2023-02-12T06:10:09.704Z,20.30
2023-02-12T06:12:42.823Z,19.40
2023-02-12T06:15:15.931Z,19.23
2023-02-12T06:17:49.040Z,19.65
2023-02-12T06:20:22.147Z,19.50
2023-02-12T06:22:55.173Z,18.08
2023-02-12T06:25:29.499Z,19.08
2023-02-12T06:28:02.566Z,19.23
2023-02-12T06:30:35.945Z,18.75
2023-02-12T06:33:08.803Z,20.27
2023-02-12T06:35:41.824Z,18.65
2023-02-12T06:38:14.841Z,19.83
2023-02-12T06:40:49.297Z,21.48
2023-02-12T06:43:22.103Z,20.33
2023-02-12T06:45:55.409Z,21.00
2023-02-12T06:48:30.309Z,18.88
2023-02-12T06:51:08.452Z,20.50
2023-02-12T06:53:41.534Z,19.50
2023-02-12T06:56:15.760Z,19.77
2023-02-12T06:58:52.894Z,19.55
2023-02-12T07:01:27.692Z,19.48
2023-02-12T07:04:02.246Z,21.00
2023-02-12T07:06:37.007Z,19.00
2023-02-12T07:09:09.820Z,21.00
2023-02-12T07:11:44.009Z,20.70
2023-02-12T07:14:17.913Z,20.77
2023-02-12T07:16:51.038Z,19.98
2023-02-12T07:19:24.303Z,20.83
2023-02-12T07:21:57.132Z,20.05
2023-02-12T07:24:30.040Z,20.50
2023-02-12T07:27:04.148Z,19.17
2023-02-12T07:29:36.983Z,18.80
2023-02-12T07:32:09.894Z,19.30
2023-02-12T07:34:42.774Z,20.63
2023-02-12T07:37:15.751Z,20.63
2023-02-12T07:39:48.591Z,20.08
2023-02-12T07:42:22.707Z,19.45
2023-02-12T07:44:56.404Z,19.70
2023-02-12T07:47:29.232Z,19.38
2023-02-12T07:50:02.040Z,20.77
2023-02-12T07:52:35.404Z,21.20
2023-02-12T07:55:09.203Z,20.40
2023-02-12T07:57:43.452Z,19.27
2023-02-12T08:00:17.337Z,21.85
2023-02-12T08:02:54.119Z,19.33
2023-02-12T08:05:26.935Z,21.25
2023-02-12T08:07:59.704Z,21.60
2023-02-12T08:10:32.609Z,20.88
2023-02-12T08:13:06.746Z,20.83
2023-02-12T08:15:39.534Z,21.23
2023-02-12T08:18:12.361Z,21.25
2023-02-12T08:20:45.195Z,20.15
2023-02-12T08:23:21.189Z,20.08
2023-02-12T08:25:54.184Z,20.98
2023-02-12T08:28:29.969Z,20.55
2023-02-12T08:31:03.264Z,21.90
2023-02-12T08:33:36.127Z,21.48
2023-02-12T08:36:11.421Z,23.35
2023-02-12T08:38:46.346Z,22.60
2023-02-12T08:41:21.744Z,22.42
2023-02-12T08:43:57.593Z,23.95
2023-02-12T08:46:32.725Z,21.83
2023-02-12T08:49:09.464Z,23.17
2023-02-12T08:51:44.568Z,20.75
2023-02-12T08:54:20.732Z,23.98
2023-02-12T08:56:56.370Z,24.13
2023-02-12T08:59:31.260Z,23.63
2023-02-12T09:02:08.826Z,25.90
2023-02-12T09:04:41.665Z,24.60
2023-02-12T09:07:14.462Z,23.88
2023-02-12T09:09:47.334Z,24.30
2023-02-12T09:12:20.404Z,24.67
2023-02-12T09:14:54.730Z,24.17
2023-02-12T09:17:27.610Z,24.27
2023-02-12T09:20:01.526Z,24.58
2023-02-12T09:22:38.110Z,23.98
2023-02-12T09:25:11.045Z,24.60
2023-02-12T09:27:43.926Z,24.15
2023-02-12T09:30:18.949Z,25.45
2023-02-12T09:32:51.741Z,23.98
2023-02-12T09:35:24.940Z,26.05
2023-02-12T09:37:57.976Z,25.63
2023-02-12T09:40:37.782Z,25.17
2023-02-12T09:43:19.613Z,25.42
2023-02-12T09:45:59.403Z,23.90
2023-02-12T09:48:44.030Z,23.58
2023-02-12T09:51:17.173Z,23.20
2023-02-12T09:53:52.757Z,24.92
2023-02-12T09:56:27.915Z,22.90
2023-02-12T09:59:03.899Z,21.38
2023-02-12T10:01:38.184Z,23.35
2023-02-12T10:04:11.200Z,24.52
2023-02-12T10:06:52.914Z,22.75
2023-02-12T10:09:39.503Z,22.67
2023-02-12T10:12:21.463Z,24.73
2023-02-12T10:15:18.041Z,24.17
2023-02-12T10:18:04.623Z,24.60
2023-02-12T10:20:49.233Z,27.08
2023-02-12T10:23:34.629Z,23.45
2023-02-12T10:26:16.499Z,22.27
2023-02-12T10:28:50.805Z,22.58
2023-02-12T10:31:30.649Z,22.15
2023-02-12T10:34:15.189Z,22.65
2023-02-12T10:36:49.966Z,24.48
2023-02-12T10:39:25.055Z,24.55
2023-02-12T10:42:03.475Z,23.33
2023-02-12T10:44:36.352Z,21.88
2023-02-12T10:47:18.768Z,21.27
2023-02-12T10:49:57.768Z,20.70
2023-02-12T10:52:40.580Z,21.85
2023-02-12T10:55:29.218Z,21.75
2023-02-12T10:58:05.448Z,22.00
2023-02-12T11:00:40.040Z,20.65
2023-02-12T11:03:23.756Z,18.10
2023-02-12T11:05:58.316Z,20.10
2023-02-12T11:08:34.853Z,19.13
2023-02-12T11:11:11.683Z,16.75
2023-02-12T11:13:50.826Z,18.90
2023-02-12T11:16:29.563Z,18.77
2023-02-12T11:19:05.806Z,18.02
2023-02-12T11:21:40.015Z,18.00
2023-02-12T11:24:24.097Z,17.38
2023-02-12T11:27:13.411Z,15.60
2023-02-12T11:29:49.018Z,16.92
2023-02-12T11:32:21.945Z,14.57
2023-02-12T11:35:07.322Z,15.23
2023-02-12T11:37:44.196Z,17.63
2023-02-12T11:40:21.191Z,18.58
2023-02-12T11:42:57.758Z,18.55
2023-02-12T11:45:35.637Z,18.13
2023-02-12T11:48:19.157Z,18.05
2023-02-12T11:50:54.631Z,18.42
2023-02-12T11:53:32.260Z,18.88
2023-02-12T11:56:07.107Z,18.98
2023-02-12T11:58:40.801Z,17.05
2023-02-12T12:01:19.719Z,14.70
2023-02-12T12:04:01.821Z,14.88
2023-02-12T12:06:37.526Z,13.93
2023-02-12T12:09:19.187Z,14.18
2023-02-12T12:12:01.070Z,12.95
2023-02-12T12:15:00.519Z,12.10
2023-02-12T12:18:03.012Z,15.95
2023-02-12T12:20:42.251Z,12.82
2023-02-12T12:23:19.895Z,15.30
2023-02-12T12:25:58.367Z,15.18
2023-02-12T12:28:36.838Z,16.05
2023-02-12T12:31:13.387Z,16.50
2023-02-12T12:33:50.664Z,14.90
2023-02-12T12:36:44.909Z,16.55
2023-02-12T12:39:27.853Z,13.20
2023-02-12T12:42:20.564Z,14.02
2023-02-12T12:45:14.238Z,13.63
2023-02-12T12:48:02.987Z,12.13
2023-02-12T12:50:58.197Z,12.80
2023-02-12T12:53:43.627Z,11.57
2023-02-12T12:56:30.226Z,8.40
2023-02-12T12:59:30.345Z,10.27
2023-02-12T13:02:33.261Z,10.98
2023-02-12T13:05:24.551Z,10.88
2023-02-12T13:08:09.844Z,11.18
2023-02-12T13:10:49.850Z,9.75
2023-02-12T13:13:29.854Z,6.95
2023-02-12T13:16:14.931Z,6.63
2023-02-12T13:18:58.964Z,7.13
2023-02-12T13:21:46.716Z,7.80
2023-02-12T13:24:31.774Z,7.35
2023-02-12T13:27:08.853Z,6.50
2023-02-12T13:29:47.554Z,5.78
2023-02-12T13:32:26.805Z,6.55
2023-02-12T13:35:01.602Z,8.02
2023-02-12T13:37:41.073Z,8.23
2023-02-12T13:40:17.218Z,7.55
2023-02-12T13:42:56.873Z,8.23
2023-02-12T13:45:41.245Z,9.40
2023-02-12T13:48:35.065Z,10.05
2023-02-12T13:51:16.616Z,10.40
2023-02-12T13:54:02.796Z,10.13
2023-02-12T13:56:42.508Z,10.70
2023-02-12T13:59:41.423Z,8.85
2023-02-12T14:02:49.592Z,9.63
2023-02-12T14:05:27.823Z,10.00
2023-02-12T14:08:05.751Z,11.43
2023-02-12T14:10:41.693Z,12.05
2023-02-12T14:13:20.727Z,10.15
2023-02-12T14:15:56.356Z,35.85
2023-02-12T14:18:35.079Z,11.45
2023-02-12T14:21:39.563Z,10.27
2023-02-12T14:24:52.210Z,10.38
2023-02-12T14:27:30.324Z,9.38
2023-02-12T14:30:31.692Z,11.95
2023-02-12T14:33:20.750Z,10.82
2023-02-12T14:36:20.034Z,12.75
2023-02-12T14:39:03.458Z,11.32
2023-02-12T14:41:43.808Z,11.55
2023-02-12T14:44:47.897Z,10.52
2023-02-12T14:47:53.821Z,11.15
2023-02-12T14:50:32.046Z,11.80
2023-02-12T14:53:23.608Z,10.80
2023-02-12T14:55:59.479Z,9.98
2023-02-12T14:58:33.760Z,9.95
2023-02-12T15:01:07.533Z,10.52
2023-02-12T15:03:44.352Z,9.65
2023-02-12T15:06:19.150Z,10.50
2023-02-12T15:08:57.213Z,10.82
2023-02-12T15:11:42.077Z,10.13
2023-02-12T15:14:20.212Z,9.75
2023-02-12T15:17:00.076Z,8.48
2023-02-12T15:19:40.859Z,9.32
2023-02-12T15:22:23.530Z,8.77
2023-02-12T15:25:15.781Z,8.85
2023-02-12T15:27:51.878Z,10.30
2023-02-12T15:30:27.162Z,9.93
2023-02-12T15:33:04.580Z,9.60
2023-02-12T15:35:41.069Z,10.70
2023-02-12T15:38:21.992Z,10.40
2023-02-12T15:40:56.957Z,9.32
2023-02-12T15:43:35.354Z,10.75
2023-02-12T15:46:17.207Z,9.35
2023-02-12T15:48:50.471Z,8.90
2023-02-12T15:51:30.609Z,8.27
2023-02-12T15:54:07.847Z,7.18
2023-02-12T15:56:42.597Z,8.65
2023-02-12T15:59:22.313Z,8.63
2023-02-12T16:01:58.025Z,9.23
2023-02-12T16:04:33.650Z,10.20
2023-02-12T16:07:08.398Z,9.85
2023-02-12T16:09:42.830Z,9.73
2023-02-12T16:12:19.195Z,9.98
2023-02-12T16:14:55.549Z,9.38
2023-02-12T16:17:30.118Z,10.40
2023-02-12T16:20:06.542Z,9.32
2023-02-12T16:22:41.102Z,9.18
2023-02-12T16:25:18.322Z,9.38
2023-02-12T16:27:57.913Z,9.38
2023-02-12T16:30:38.711Z,8.88
2023-02-12T16:33:36.624Z,8.95
2023-02-12T16:36:14.659Z,9.52
2023-02-12T16:38:49.069Z,9.15
2023-02-12T16:41:27.017Z,8.60
2023-02-12T16:44:25.716Z,9.82
2023-02-12T16:47:02.263Z,8.73
2023-02-12T16:49:35.083Z,10.25
2023-02-12T16:52:29.330Z,9.05
2023-02-12T16:55:02.606Z,9.18
2023-02-12T16:57:35.421Z,11.15
2023-02-12T17:00:09.736Z,10.35
2023-02-12T17:02:44.541Z,10.23
2023-02-12T17:05:18.654Z,9.77
2023-02-12T17:07:51.920Z,11.27
2023-02-12T17:10:25.039Z,10.68
2023-02-12T17:12:57.915Z,11.68
2023-02-12T17:15:35.449Z,11.13
2023-02-12T17:18:11.419Z,11.20
2023-02-12T17:20:46.259Z,10.73
2023-02-12T17:23:19.136Z,10.88
2023-02-12T17:25:52.144Z,11.80
2023-02-12T17:28:25.406Z,14.35
2023-02-12T17:30:58.578Z,13.25
2023-02-12T17:33:32.997Z,10.57
2023-02-12T17:36:06.726Z,10.43
2023-02-12T17:38:39.493Z,11.13
2023-02-12T17:41:12.356Z,11.60
2023-02-12T17:43:46.426Z,10.88
2023-02-12T17:46:21.502Z,11.57
2023-02-12T17:48:55.949Z,13.13
2023-02-12T17:51:29.011Z,11.90
2023-02-12T17:54:01.853Z,10.90
2023-02-12T17:56:34.674Z,11.30
2023-02-12T17:59:07.474Z,10.93
2023-02-12T18:01:42.877Z,11.27
2023-02-12T18:04:17.041Z,12.45
2023-02-12T18:06:49.853Z,11.10
2023-02-12T18:09:22.681Z,12.25
2023-02-12T18:11:55.574Z,12.98
2023-02-12T18:14:28.467Z,11.43
2023-02-12T18:17:01.358Z,11.80
2023-02-12T18:19:35.525Z,11.40
2023-02-12T18:22:08.354Z,12.18
2023-02-12T18:24:41.451Z,11.20
2023-02-12T18:27:15.124Z,10.75
2023-02-12T18:29:48.131Z,10.13
2023-02-12T18:32:20.996Z,10.98
2023-02-12T18:34:55.125Z,11.02
2023-02-12T18:37:27.945Z,11.23
2023-02-12T18:40:00.901Z,10.43
2023-02-12T18:42:33.736Z,12.57
2023-02-12T18:45:07.405Z,11.60
2023-02-12T18:47:40.279Z,11.90
2023-02-12T18:50:14.455Z,12.13
2023-02-12T18:52:47.328Z,10.50
2023-02-12T18:55:20.110Z,11.70
2023-02-12T18:57:53.205Z,10.75
2023-02-12T19:00:26.293Z,13.60
2023-02-12T19:02:59.142Z,11.75
2023-02-12T19:05:33.726Z,12.70
2023-02-12T19:08:06.582Z,12.27
2023-02-12T19:10:40.287Z,11.90
2023-02-12T19:13:13.094Z,12.10
2023-02-12T19:15:46.154Z,10.88
2023-02-12T19:18:19.520Z,11.77
2023-02-12T19:20:53.852Z,13.50
2023-02-12T19:23:26.786Z,13.52
2023-02-12T19:26:03.847Z,16.92
2023-02-12T19:28:38.381Z,11.70
2023-02-12T19:31:14.288Z,12.15
2023-02-12T19:33:49.946Z,13.55
2023-02-12T19:36:25.218Z,11.57
2023-02-12T19:38:58.072Z,13.30
2023-02-12T19:41:40.640Z,12.73
2023-02-12T19:44:16.782Z,13.80
2023-02-12T19:46:51.339Z,13.20
2023-02-12T19:49:26.490Z,13.48
2023-02-12T19:52:00.620Z,13.35
2023-02-12T19:54:33.823Z,15.40
2023-02-12T19:57:09.316Z,16.38
2023-02-12T19:59:42.467Z,17.17
2023-02-12T20:02:15.268Z,15.93
2023-02-12T20:04:48.311Z,15.38
2023-02-12T20:07:22.561Z,16.20
2023-02-12T20:09:55.338Z,15.95
2023-02-12T20:12:28.207Z,15.27
2023-02-12T20:15:02.765Z,15.57
2023-02-12T20:17:35.768Z,15.05
2023-02-12T20:20:10.283Z,14.93
2023-02-12T20:22:44.453Z,15.15
2023-02-12T20:25:17.540Z,15.00
2023-02-12T20:27:51.047Z,14.35
2023-02-12T20:30:24.562Z,17.83
2023-02-12T20:32:57.382Z,17.10
2023-02-12T20:35:31.509Z,16.95
2023-02-12T20:38:05.921Z,16.77
2023-02-12T20:40:39.295Z,16.10
2023-02-12T20:43:12.100Z,16.92
2023-02-12T20:45:45.084Z,16.70
2023-02-12T20:48:19.157Z,16.55
2023-02-12T20:50:51.926Z,15.93
2023-02-12T20:53:26.162Z,14.75
2023-02-12T20:56:02.070Z,15.80
2023-02-12T20:58:35.180Z,17.13
2023-02-12T21:01:10.080Z,17.60
2023-02-12T21:03:43.171Z,15.82
2023-02-12T21:06:16.257Z,17.63
2023-02-12T21:08:51.679Z,15.38
2023-02-12T21:11:26.772Z,14.73
2023-02-12T21:14:20.710Z,14.73
2023-02-12T21:16:56.332Z,14.93
2023-02-12T21:19:29.387Z,15.77
2023-02-12T21:22:02.202Z,15.02
2023-02-12T21:24:36.545Z,16.35
2023-02-12T21:27:09.330Z,15.30
2023-02-12T21:29:42.157Z,15.13
2023-02-12T21:32:15.153Z,17.02
2023-02-12T21:34:48.948Z,16.92
2023-02-12T21:37:21.941Z,16.40
2023-02-12T21:39:56.161Z,17.00
2023-02-12T21:42:30.336Z,20.52
2023-02-12T21:45:03.935Z,19.45
2023-02-12T21:47:37.006Z,18.83
2023-02-12T21:50:14.105Z,19.15
2023-02-12T21:52:54.470Z,18.65
2023-02-12T21:56:04.542Z,18.83
2023-02-12T21:59:06.556Z,21.65
2023-02-12T22:02:15.559Z,21.40
2023-02-12T22:05:23.491Z,19.23
2023-02-12T22:08:04.593Z,18.38
2023-02-12T22:11:02.163Z,19.23
2023-02-12T22:13:35.667Z,23.38
2023-02-12T22:16:10.108Z,25.27
2023-02-12T22:18:44.055Z,23.05
2023-02-12T22:21:30.507Z,20.08
2023-02-12T22:24:12.901Z,22.25
2023-02-12T22:26:47.175Z,21.60
2023-02-12T22:29:21.149Z,20.77
2023-02-12T22:31:55.938Z,21.45
2023-02-12T22:34:28.790Z,21.15
2023-02-12T22:37:01.632Z,22.90
2023-02-12T22:39:34.718Z,21.35
2023-02-12T22:42:09.202Z,21.42
2023-02-12T22:44:42.018Z,22.13
2023-02-12T22:47:14.843Z,22.50
2023-02-12T22:49:47.636Z,21.45
2023-02-12T22:52:20.409Z,19.83
2023-02-12T22:54:53.221Z,23.25
2023-02-12T22:57:27.499Z,27.10
2023-02-12T23:00:00.411Z,24.42
2023-02-12T23:02:33.913Z,22.88
2023-02-12T23:05:06.797Z,24.30
2023-02-12T23:07:39.588Z,25.10
2023-02-12T23:10:12.910Z,26.13
2023-02-12T23:12:47.142Z,24.52
2023-02-12T23:15:19.940Z,26.63
2023-02-12T23:17:53.018Z,27.40
2023-02-12T23:20:25.870Z,26.52
2023-02-12T23:22:59.074Z,32.30
2023-02-12T23:25:31.938Z,23.05
2023-02-12T23:28:06.274Z,25.05
2023-02-12T23:30:39.305Z,22.17
2023-02-12T23:33:12.261Z,28.60
2023-02-12T23:35:45.950Z,20.58
2023-02-12T23:38:18.871Z,21.02
2023-02-12T23:40:51.679Z,30.95
2023-02-12T23:43:25.953Z,26.80
2023-02-12T23:45:58.866Z,26.25
2023-02-12T23:48:31.712Z,21.33
2023-02-12T23:51:04.720Z,22.77
2023-02-12T23:53:37.621Z,21.92
2023-02-12T23:56:10.377Z,21.73
2023-02-12T23:58:44.525Z,19.85
